sensor_id;sensor_type;location;lat;lon;timestamp;P1;durP1;ratioP1;P2;durP2;ratioP2
35128;SDS011;21301;43.626;10.580;2022-12-18T00:01:15;25.13;;;12.90;;
35128;SDS011;21301;43.626;10.580;2022-12-18T00:03:43;25.77;;;13.80;;
35128;SDS011;21301;43.626;10.580;2022-12-18T00:06:10;24.05;;;12.48;;
35128;SDS011;21301;43.626;10.580;2022-12-18T00:08:36;24.23;;;12.93;;
35128;SDS011;21301;43.626;10.580;2022-12-18T00:11:03;22.70;;;13.25;;
35128;SDS011;21301;43.626;10.580;2022-12-18T00:13:30;22.17;;;13.30;;
35128;SDS011;21301;43.626;10.580;2022-12-18T00:16:00;21.25;;;13.35;;
35128;SDS011;21301;43.626;10.580;2022-12-18T00:18:30;22.55;;;13.18;;
35128;SDS011;21301;43.626;10.580;2022-12-18T00:20:58;24.25;;;13.40;;
35128;SDS011;21301;43.626;10.580;2022-12-18T00:23:26;20.30;;;10.98;;
35128;SDS011;21301;43.626;10.580;2022-12-18T00:25:53;20.08;;;12.40;;
35128;SDS011;21301;43.626;10.580;2022-12-18T00:28:18;17.88;;;11.63;;
35128;SDS011;21301;43.626;10.580;2022-12-18T00:30:45;20.05;;;12.88;;
35128;SDS011;21301;43.626;10.580;2022-12-18T00:33:11;19.40;;;11.35;;
35128;SDS011;21301;43.626;10.580;2022-12-18T00:35:37;18.58;;;11.20;;
35128;SDS011;21301;43.626;10.580;2022-12-18T00:38:03;20.92;;;11.65;;
35128;SDS011;21301;43.626;10.580;2022-12-18T00:40:30;17.25;;;9.88;;
35128;SDS011;21301;43.626;10.580;2022-12-18T00:42:56;24.70;;;14.30;;
35128;SDS011;21301;43.626;10.580;2022-12-18T00:45:25;19.55;;;11.00;;
35128;SDS011;21301;43.626;10.580;2022-12-18T00:47:53;20.10;;;12.25;;
35128;SDS011;21301;43.626;10.580;2022-12-18T00:50:20;22.55;;;11.75;;
35128;SDS011;21301;43.626;10.580;2022-12-18T00:52:47;24.80;;;14.27;;
35128;SDS011;21301;43.626;10.580;2022-12-18T00:55:13;27.35;;;14.07;;
35128;SDS011;21301;43.626;10.580;2022-12-18T00:57:39;19.08;;;12.90;;
35128;SDS011;21301;43.626;10.580;2022-12-18T01:00:06;21.98;;;12.95;;
35128;SDS011;21301;43.626;10.580;2022-12-18T01:02:34;20.67;;;11.70;;
35128;SDS011;21301;43.626;10.580;2022-12-18T01:05:01;21.20;;;11.50;;
35128;SDS011;21301;43.626;10.580;2022-12-18T01:07:27;23.73;;;13.30;;
35128;SDS011;21301;43.626;10.580;2022-12-18T01:09:53;19.83;;;11.50;;
35128;SDS011;21301;43.626;10.580;2022-12-18T01:12:19;19.63;;;11.15;;
35128;SDS011;21301;43.626;10.580;2022-12-18T01:14:45;16.95;;;10.32;;
35128;SDS011;21301;43.626;10.580;2022-12-18T01:17:10;17.90;;;10.35;;
35128;SDS011;21301;43.626;10.580;2022-12-18T01:19:36;18.67;;;11.35;;
35128;SDS011;21301;43.626;10.580;2022-12-18T01:22:02;24.80;;;13.13;;
35128;SDS011;21301;43.626;10.580;2022-12-18T01:24:28;22.02;;;11.07;;
35128;SDS011;21301;43.626;10.580;2022-12-18T01:26:54;21.05;;;13.27;;
35128;SDS011;21301;43.626;10.580;2022-12-18T01:29:22;29.35;;;15.45;;
35128;SDS011;21301;43.626;10.580;2022-12-18T01:31:48;24.40;;;13.43;;
35128;SDS011;21301;43.626;10.580;2022-12-18T01:34:14;18.02;;;10.55;;
35128;SDS011;21301;43.626;10.580;2022-12-18T01:36:40;18.95;;;11.10;;
35128;SDS011;21301;43.626;10.580;2022-12-18T01:39:08;21.15;;;11.65;;
35128;SDS011;21301;43.626;10.580;2022-12-18T01:41:36;21.20;;;12.60;;
35128;SDS011;21301;43.626;10.580;2022-12-18T01:47:41;27.45;;;12.32;;
35128;SDS011;21301;43.626;10.580;2022-12-18T01:50:16;25.48;;;10.02;;
35128;SDS011;21301;43.626;10.580;2022-12-18T01:52:42;25.52;;;11.60;;
35128;SDS011;21301;43.626;10.580;2022-12-18T01:55:11;16.33;;;9.05;;
35128;SDS011;21301;43.626;10.580;2022-12-18T01:57:40;15.77;;;10.43;;
35128;SDS011;21301;43.626;10.580;2022-12-18T02:00:11;15.45;;;9.05;;
35128;SDS011;21301;43.626;10.580;2022-12-18T02:02:40;13.52;;;9.48;;
35128;SDS011;21301;43.626;10.580;2022-12-18T02:05:07;19.13;;;8.60;;
35128;SDS011;21301;43.626;10.580;2022-12-18T02:16:07;12.65;;;7.47;;
35128;SDS011;21301;43.626;10.580;2022-12-18T02:18:45;12.57;;;7.18;;
35128;SDS011;21301;43.626;10.580;2022-12-18T02:24:28;11.00;;;6.35;;
35128;SDS011;21301;43.626;10.580;2022-12-18T02:27:07;13.35;;;7.43;;
35128;SDS011;21301;43.626;10.580;2022-12-18T02:29:40;10.55;;;6.82;;
35128;SDS011;21301;43.626;10.580;2022-12-18T02:32:10;14.13;;;6.80;;
35128;SDS011;21301;43.626;10.580;2022-12-18T02:34:41;13.20;;;6.78;;
35128;SDS011;21301;43.626;10.580;2022-12-18T02:37:15;11.18;;;7.25;;
35128;SDS011;21301;43.626;10.580;2022-12-18T02:39:43;15.65;;;7.90;;
35128;SDS011;21301;43.626;10.580;2022-12-18T02:42:12;13.63;;;8.00;;
35128;SDS011;21301;43.626;10.580;2022-12-18T02:44:49;18.25;;;8.05;;
35128;SDS011;21301;43.626;10.580;2022-12-18T02:47:24;13.77;;;8.07;;
35128;SDS011;21301;43.626;10.580;2022-12-18T02:55:58;12.55;;;7.97;;
35128;SDS011;21301;43.626;10.580;2022-12-18T02:58:50;16.42;;;8.75;;
35128;SDS011;21301;43.626;10.580;2022-12-18T03:01:57;16.27;;;8.75;;
35128;SDS011;21301;43.626;10.580;2022-12-18T03:04:34;17.70;;;8.07;;
35128;SDS011;21301;43.626;10.580;2022-12-18T03:07:25;13.95;;;8.02;;
35128;SDS011;21301;43.626;10.580;2022-12-18T03:10:08;15.63;;;9.98;;
35128;SDS011;21301;43.626;10.580;2022-12-18T03:12:40;12.60;;;7.80;;
35128;SDS011;21301;43.626;10.580;2022-12-18T03:17:41;17.30;;;9.63;;
35128;SDS011;21301;43.626;10.580;2022-12-18T03:20:17;20.35;;;10.10;;
35128;SDS011;21301;43.626;10.580;2022-12-18T03:22:46;14.75;;;9.57;;
35128;SDS011;21301;43.626;10.580;2022-12-18T03:25:23;16.88;;;8.77;;
35128;SDS011;21301;43.626;10.580;2022-12-18T03:27:54;18.58;;;10.52;;
35128;SDS011;21301;43.626;10.580;2022-12-18T03:30:23;15.52;;;9.25;;
35128;SDS011;21301;43.626;10.580;2022-12-18T03:33:34;15.60;;;8.48;;
35128;SDS011;21301;43.626;10.580;2022-12-18T03:35:46;15.73;;;9.55;;
35128;SDS011;21301;43.626;10.580;2022-12-18T03:38:12;12.73;;;8.32;;
35128;SDS011;21301;43.626;10.580;2022-12-18T03:44:03;15.38;;;9.07;;
35128;SDS011;21301;43.626;10.580;2022-12-18T03:49:26;16.77;;;8.88;;
35128;SDS011;21301;43.626;10.580;2022-12-18T03:54:28;13.80;;;8.40;;
35128;SDS011;21301;43.626;10.580;2022-12-18T03:57:07;13.20;;;8.02;;
35128;SDS011;21301;43.626;10.580;2022-12-18T03:59:41;13.07;;;8.40;;
35128;SDS011;21301;43.626;10.580;2022-12-18T04:02:10;14.15;;;7.63;;
35128;SDS011;21301;43.626;10.580;2022-12-18T04:04:37;14.00;;;7.45;;
35128;SDS011;21301;43.626;10.580;2022-12-18T04:07:05;14.20;;;8.38;;
35128;SDS011;21301;43.626;10.580;2022-12-18T04:09:33;13.40;;;8.52;;
35128;SDS011;21301;43.626;10.580;2022-12-18T04:12:02;12.25;;;7.55;;
35128;SDS011;21301;43.626;10.580;2022-12-18T04:14:28;13.73;;;7.65;;
35128;SDS011;21301;43.626;10.580;2022-12-18T04:16:55;12.63;;;7.82;;
35128;SDS011;21301;43.626;10.580;2022-12-18T04:19:28;12.95;;;7.85;;
35128;SDS011;21301;43.626;10.580;2022-12-18T04:21:54;12.20;;;8.05;;
35128;SDS011;21301;43.626;10.580;2022-12-18T04:24:19;14.70;;;7.40;;
35128;SDS011;21301;43.626;10.580;2022-12-18T04:27:00;13.25;;;7.38;;
35128;SDS011;21301;43.626;10.580;2022-12-18T04:29:31;13.10;;;8.07;;
35128;SDS011;21301;43.626;10.580;2022-12-18T04:31:58;12.57;;;8.02;;
35128;SDS011;21301;43.626;10.580;2022-12-18T04:34:25;12.93;;;6.80;;
35128;SDS011;21301;43.626;10.580;2022-12-18T04:36:52;12.73;;;7.95;;
35128;SDS011;21301;43.626;10.580;2022-12-18T04:39:21;12.68;;;7.75;;
35128;SDS011;21301;43.626;10.580;2022-12-18T04:41:49;14.32;;;8.35;;
35128;SDS011;21301;43.626;10.580;2022-12-18T04:44:15;14.25;;;7.90;;
35128;SDS011;21301;43.626;10.580;2022-12-18T04:46:41;13.95;;;8.05;;
35128;SDS011;21301;43.626;10.580;2022-12-18T04:49:07;11.07;;;6.65;;
35128;SDS011;21301;43.626;10.580;2022-12-18T04:51:32;12.35;;;7.63;;
35128;SDS011;21301;43.626;10.580;2022-12-18T04:53:58;13.43;;;7.53;;
35128;SDS011;21301;43.626;10.580;2022-12-18T04:56:24;14.02;;;8.13;;
35128;SDS011;21301;43.626;10.580;2022-12-18T04:58:50;11.43;;;7.43;;
35128;SDS011;21301;43.626;10.580;2022-12-18T05:01:16;13.35;;;7.57;;
35128;SDS011;21301;43.626;10.580;2022-12-18T05:03:43;11.85;;;7.22;;
35128;SDS011;21301;43.626;10.580;2022-12-18T05:06:09;12.88;;;7.47;;
35128;SDS011;21301;43.626;10.580;2022-12-18T05:08:35;15.27;;;7.90;;
35128;SDS011;21301;43.626;10.580;2022-12-18T05:11:05;12.80;;;7.97;;
35128;SDS011;21301;43.626;10.580;2022-12-18T05:13:33;13.73;;;7.20;;
35128;SDS011;21301;43.626;10.580;2022-12-18T05:15:59;15.38;;;8.40;;
35128;SDS011;21301;43.626;10.580;2022-12-18T05:18:25;13.18;;;7.47;;
35128;SDS011;21301;43.626;10.580;2022-12-18T05:20:51;12.77;;;7.72;;
35128;SDS011;21301;43.626;10.580;2022-12-18T05:23:18;17.73;;;8.27;;
35128;SDS011;21301;43.626;10.580;2022-12-18T05:25:55;15.07;;;8.30;;
35128;SDS011;21301;43.626;10.580;2022-12-18T05:28:26;9.55;;;6.38;;
35128;SDS011;21301;43.626;10.580;2022-12-18T05:30:56;13.38;;;7.20;;
35128;SDS011;21301;43.626;10.580;2022-12-18T05:33:23;11.13;;;6.38;;
35128;SDS011;21301;43.626;10.580;2022-12-18T05:35:54;11.88;;;6.32;;
35128;SDS011;21301;43.626;10.580;2022-12-18T05:38:23;15.20;;;6.93;;
35128;SDS011;21301;43.626;10.580;2022-12-18T05:40:50;11.25;;;6.70;;
35128;SDS011;21301;43.626;10.580;2022-12-18T05:43:17;12.43;;;7.07;;
35128;SDS011;21301;43.626;10.580;2022-12-18T05:45:44;11.88;;;6.88;;
35128;SDS011;21301;43.626;10.580;2022-12-18T05:48:10;13.52;;;7.07;;
35128;SDS011;21301;43.626;10.580;2022-12-18T05:50:36;12.38;;;7.53;;
35128;SDS011;21301;43.626;10.580;2022-12-18T05:53:04;13.80;;;8.18;;
35128;SDS011;21301;43.626;10.580;2022-12-18T05:55:37;13.15;;;6.95;;
35128;SDS011;21301;43.626;10.580;2022-12-18T05:58:04;10.73;;;6.90;;
35128;SDS011;21301;43.626;10.580;2022-12-18T06:00:32;12.07;;;6.82;;
35128;SDS011;21301;43.626;10.580;2022-12-18T06:02:59;10.40;;;6.70;;
35128;SDS011;21301;43.626;10.580;2022-12-18T06:05:26;14.25;;;7.72;;
35128;SDS011;21301;43.626;10.580;2022-12-18T06:07:52;16.33;;;8.70;;
35128;SDS011;21301;43.626;10.580;2022-12-18T06:10:18;18.60;;;8.15;;
35128;SDS011;21301;43.626;10.580;2022-12-18T06:12:44;14.35;;;8.18;;
35128;SDS011;21301;43.626;10.580;2022-12-18T06:15:10;13.15;;;7.68;;
35128;SDS011;21301;43.626;10.580;2022-12-18T06:17:36;14.13;;;8.68;;
35128;SDS011;21301;43.626;10.580;2022-12-18T06:20:02;23.08;;;8.43;;
35128;SDS011;21301;43.626;10.580;2022-12-18T06:22:30;13.85;;;7.75;;
35128;SDS011;21301;43.626;10.580;2022-12-18T06:24:56;13.27;;;8.65;;
35128;SDS011;21301;43.626;10.580;2022-12-18T06:27:22;15.57;;;7.63;;
35128;SDS011;21301;43.626;10.580;2022-12-18T06:29:48;15.43;;;7.30;;
35128;SDS011;21301;43.626;10.580;2022-12-18T06:32:14;12.98;;;6.90;;
35128;SDS011;21301;43.626;10.580;2022-12-18T06:34:40;14.45;;;8.82;;
35128;SDS011;21301;43.626;10.580;2022-12-18T06:37:06;13.48;;;8.52;;
35128;SDS011;21301;43.626;10.580;2022-12-18T06:39:32;13.80;;;7.40;;
35128;SDS011;21301;43.626;10.580;2022-12-18T06:41:57;12.25;;;6.95;;
35128;SDS011;21301;43.626;10.580;2022-12-18T06:44:23;14.55;;;6.75;;
35128;SDS011;21301;43.626;10.580;2022-12-18T06:46:49;13.60;;;6.68;;
35128;SDS011;21301;43.626;10.580;2022-12-18T06:49:15;10.23;;;6.13;;
35128;SDS011;21301;43.626;10.580;2022-12-18T06:51:41;7.78;;;4.97;;
35128;SDS011;21301;43.626;10.580;2022-12-18T06:54:07;10.02;;;5.38;;
35128;SDS011;21301;43.626;10.580;2022-12-18T06:56:33;9.00;;;5.75;;
35128;SDS011;21301;43.626;10.580;2022-12-18T06:58:59;10.32;;;5.45;;
35128;SDS011;21301;43.626;10.580;2022-12-18T07:01:26;12.20;;;5.63;;
35128;SDS011;21301;43.626;10.580;2022-12-18T07:03:52;8.57;;;5.53;;
35128;SDS011;21301;43.626;10.580;2022-12-18T07:06:20;8.70;;;4.22;;
35128;SDS011;21301;43.626;10.580;2022-12-18T07:08:47;8.95;;;5.72;;
35128;SDS011;21301;43.626;10.580;2022-12-18T07:11:13;10.77;;;5.45;;
35128;SDS011;21301;43.626;10.580;2022-12-18T07:13:40;8.82;;;5.13;;
35128;SDS011;21301;43.626;10.580;2022-12-18T07:16:07;10.45;;;7.00;;
35128;SDS011;21301;43.626;10.580;2022-12-18T07:18:35;11.80;;;6.95;;
35128;SDS011;21301;43.626;10.580;2022-12-18T07:21:04;11.50;;;7.32;;
35128;SDS011;21301;43.626;10.580;2022-12-18T07:23:32;13.93;;;7.82;;
35128;SDS011;21301;43.626;10.580;2022-12-18T07:26:18;17.20;;;9.35;;
35128;SDS011;21301;43.626;10.580;2022-12-18T07:28:45;19.70;;;10.88;;
35128;SDS011;21301;43.626;10.580;2022-12-18T07:31:13;35.15;;;16.13;;
35128;SDS011;21301;43.626;10.580;2022-12-18T07:33:44;44.40;;;19.92;;
35128;SDS011;21301;43.626;10.580;2022-12-18T07:36:10;52.10;;;24.10;;
35128;SDS011;21301;43.626;10.580;2022-12-18T07:38:36;22.58;;;12.88;;
35128;SDS011;21301;43.626;10.580;2022-12-18T07:41:03;22.75;;;10.00;;
35128;SDS011;21301;43.626;10.580;2022-12-18T07:43:31;15.77;;;9.35;;
35128;SDS011;21301;43.626;10.580;2022-12-18T07:45:57;12.60;;;7.40;;
35128;SDS011;21301;43.626;10.580;2022-12-18T07:48:23;16.90;;;7.78;;
35128;SDS011;21301;43.626;10.580;2022-12-18T07:50:49;12.25;;;8.15;;
35128;SDS011;21301;43.626;10.580;2022-12-18T07:53:15;13.35;;;7.88;;
35128;SDS011;21301;43.626;10.580;2022-12-18T07:55:41;17.52;;;8.82;;
35128;SDS011;21301;43.626;10.580;2022-12-18T07:58:07;14.30;;;7.38;;
35128;SDS011;21301;43.626;10.580;2022-12-18T08:00:34;12.77;;;7.22;;
35128;SDS011;21301;43.626;10.580;2022-12-18T08:03:00;9.63;;;5.85;;
35128;SDS011;21301;43.626;10.580;2022-12-18T08:05:26;13.38;;;7.05;;
35128;SDS011;21301;43.626;10.580;2022-12-18T08:07:53;10.07;;;6.03;;
35128;SDS011;21301;43.626;10.580;2022-12-18T08:10:19;9.48;;;5.88;;
35128;SDS011;21301;43.626;10.580;2022-12-18T08:12:45;10.57;;;7.32;;
35128;SDS011;21301;43.626;10.580;2022-12-18T08:15:14;14.73;;;8.32;;
35128;SDS011;21301;43.626;10.580;2022-12-18T08:17:40;12.40;;;10.38;;
35128;SDS011;21301;43.626;10.580;2022-12-18T08:20:06;16.00;;;10.98;;
35128;SDS011;21301;43.626;10.580;2022-12-18T08:22:33;13.73;;;9.02;;
35128;SDS011;21301;43.626;10.580;2022-12-18T08:25:00;12.88;;;8.07;;
35128;SDS011;21301;43.626;10.580;2022-12-18T08:27:27;9.57;;;6.82;;
35128;SDS011;21301;43.626;10.580;2022-12-18T08:29:54;10.38;;;6.95;;
35128;SDS011;21301;43.626;10.580;2022-12-18T08:32:20;10.43;;;6.97;;
35128;SDS011;21301;43.626;10.580;2022-12-18T08:34:46;10.98;;;6.57;;
35128;SDS011;21301;43.626;10.580;2022-12-18T08:37:11;9.25;;;5.53;;
35128;SDS011;21301;43.626;10.580;2022-12-18T08:39:37;9.75;;;5.50;;
35128;SDS011;21301;43.626;10.580;2022-12-18T08:42:03;11.82;;;5.93;;
35128;SDS011;21301;43.626;10.580;2022-12-18T08:44:47;8.38;;;5.22;;
35128;SDS011;21301;43.626;10.580;2022-12-18T08:47:13;11.18;;;5.97;;
35128;SDS011;21301;43.626;10.580;2022-12-18T08:49:39;9.88;;;4.75;;
35128;SDS011;21301;43.626;10.580;2022-12-18T08:52:05;9.43;;;6.28;;
35128;SDS011;21301;43.626;10.580;2022-12-18T08:54:31;13.00;;;6.47;;
35128;SDS011;21301;43.626;10.580;2022-12-18T08:56:57;12.13;;;6.45;;
35128;SDS011;21301;43.626;10.580;2022-12-18T08:59:22;10.95;;;5.95;;
35128;SDS011;21301;43.626;10.580;2022-12-18T09:01:48;10.43;;;6.20;;
35128;SDS011;21301;43.626;10.580;2022-12-18T09:04:14;10.68;;;6.75;;
35128;SDS011;21301;43.626;10.580;2022-12-18T09:06:40;9.75;;;5.78;;
35128;SDS011;21301;43.626;10.580;2022-12-18T09:09:06;10.55;;;5.70;;
35128;SDS011;21301;43.626;10.580;2022-12-18T09:11:32;8.10;;;4.80;;
35128;SDS011;21301;43.626;10.580;2022-12-18T09:13:59;11.13;;;5.75;;
35128;SDS011;21301;43.626;10.580;2022-12-18T09:16:27;9.95;;;6.03;;
35128;SDS011;21301;43.626;10.580;2022-12-18T09:18:57;9.75;;;5.32;;
35128;SDS011;21301;43.626;10.580;2022-12-18T09:21:29;8.30;;;4.90;;
35128;SDS011;21301;43.626;10.580;2022-12-18T09:23:56;7.85;;;4.82;;
35128;SDS011;21301;43.626;10.580;2022-12-18T09:26:22;8.07;;;4.53;;
35128;SDS011;21301;43.626;10.580;2022-12-18T09:28:50;9.55;;;5.80;;
35128;SDS011;21301;43.626;10.580;2022-12-18T09:31:16;9.00;;;4.95;;
35128;SDS011;21301;43.626;10.580;2022-12-18T09:33:43;8.27;;;4.55;;
35128;SDS011;21301;43.626;10.580;2022-12-18T09:36:11;6.00;;;3.15;;
35128;SDS011;21301;43.626;10.580;2022-12-18T09:38:39;6.53;;;3.80;;
35128;SDS011;21301;43.626;10.580;2022-12-18T09:41:05;5.72;;;3.40;;
35128;SDS011;21301;43.626;10.580;2022-12-18T09:43:59;9.20;;;4.55;;
35128;SDS011;21301;43.626;10.580;2022-12-18T09:46:29;7.40;;;4.18;;
35128;SDS011;21301;43.626;10.580;2022-12-18T09:49:00;8.65;;;4.68;;
35128;SDS011;21301;43.626;10.580;2022-12-18T09:51:33;6.32;;;3.80;;
35128;SDS011;21301;43.626;10.580;2022-12-18T09:54:07;7.15;;;4.20;;
35128;SDS011;21301;43.626;10.580;2022-12-18T09:56:40;8.18;;;4.53;;
35128;SDS011;21301;43.626;10.580;2022-12-18T09:59:14;5.93;;;3.17;;
35128;SDS011;21301;43.626;10.580;2022-12-18T10:01:42;9.35;;;3.67;;
35128;SDS011;21301;43.626;10.580;2022-12-18T10:04:08;6.47;;;4.03;;
35128;SDS011;21301;43.626;10.580;2022-12-18T10:06:36;6.93;;;3.28;;
35128;SDS011;21301;43.626;10.580;2022-12-18T10:09:18;6.00;;;2.97;;
35128;SDS011;21301;43.626;10.580;2022-12-18T10:12:00;5.78;;;3.10;;
35128;SDS011;21301;43.626;10.580;2022-12-18T10:19:56;7.25;;;3.17;;
35128;SDS011;21301;43.626;10.580;2022-12-18T10:28:08;6.35;;;2.67;;
35128;SDS011;21301;43.626;10.580;2022-12-18T10:30:38;5.65;;;3.13;;
35128;SDS011;21301;43.626;10.580;2022-12-18T10:33:05;8.75;;;4.30;;
35128;SDS011;21301;43.626;10.580;2022-12-18T10:35:34;5.82;;;2.83;;
35128;SDS011;21301;43.626;10.580;2022-12-18T10:38:34;5.72;;;3.22;;
35128;SDS011;21301;43.626;10.580;2022-12-18T10:43:33;8.38;;;4.95;;
35128;SDS011;21301;43.626;10.580;2022-12-18T10:46:05;8.23;;;4.90;;
35128;SDS011;21301;43.626;10.580;2022-12-18T10:49:00;8.52;;;4.45;;
35128;SDS011;21301;43.626;10.580;2022-12-18T10:51:33;11.68;;;3.30;;
35128;SDS011;21301;43.626;10.580;2022-12-18T10:54:34;9.15;;;3.78;;
35128;SDS011;21301;43.626;10.580;2022-12-18T10:57:29;7.13;;;3.40;;
35128;SDS011;21301;43.626;10.580;2022-12-18T10:59:57;7.75;;;3.70;;
35128;SDS011;21301;43.626;10.580;2022-12-18T11:02:26;5.60;;;2.55;;
35128;SDS011;21301;43.626;10.580;2022-12-18T11:04:59;14.60;;;6.07;;
35128;SDS011;21301;43.626;10.580;2022-12-18T11:07:26;12.75;;;8.05;;
35128;SDS011;21301;43.626;10.580;2022-12-18T11:10:16;9.55;;;6.88;;
35128;SDS011;21301;43.626;10.580;2022-12-18T11:12:43;8.00;;;4.60;;
35128;SDS011;21301;43.626;10.580;2022-12-18T11:15:16;10.25;;;4.82;;
35128;SDS011;21301;43.626;10.580;2022-12-18T11:17:54;7.05;;;4.22;;
35128;SDS011;21301;43.626;10.580;2022-12-18T11:20:39;7.60;;;4.50;;
35128;SDS011;21301;43.626;10.580;2022-12-18T11:23:10;7.68;;;3.80;;
35128;SDS011;21301;43.626;10.580;2022-12-18T11:25:38;6.88;;;3.95;;
35128;SDS011;21301;43.626;10.580;2022-12-18T11:30:50;8.27;;;4.80;;
35128;SDS011;21301;43.626;10.580;2022-12-18T11:33:37;10.27;;;4.82;;
35128;SDS011;21301;43.626;10.580;2022-12-18T11:36:08;10.35;;;6.13;;
35128;SDS011;21301;43.626;10.580;2022-12-18T11:38:36;11.65;;;5.28;;
35128;SDS011;21301;43.626;10.580;2022-12-18T11:41:07;7.72;;;4.18;;
35128;SDS011;21301;43.626;10.580;2022-12-18T11:44:22;8.27;;;4.03;;
35128;SDS011;21301;43.626;10.580;2022-12-18T11:46:55;9.00;;;4.38;;
35128;SDS011;21301;43.626;10.580;2022-12-18T11:49:32;7.57;;;4.00;;
35128;SDS011;21301;43.626;10.580;2022-12-18T11:54:40;7.88;;;4.25;;
35128;SDS011;21301;43.626;10.580;2022-12-18T11:57:19;7.03;;;3.88;;
35128;SDS011;21301;43.626;10.580;2022-12-18T12:00:16;9.77;;;5.00;;
35128;SDS011;21301;43.626;10.580;2022-12-18T12:05:57;10.13;;;5.65;;
35128;SDS011;21301;43.626;10.580;2022-12-18T12:14:17;8.27;;;4.18;;
35128;SDS011;21301;43.626;10.580;2022-12-18T12:19:50;6.97;;;3.72;;
35128;SDS011;21301;43.626;10.580;2022-12-18T12:25:50;6.43;;;3.05;;
35128;SDS011;21301;43.626;10.580;2022-12-18T12:34:12;8.90;;;3.50;;
35128;SDS011;21301;43.626;10.580;2022-12-18T12:36:59;7.40;;;3.83;;
35128;SDS011;21301;43.626;10.580;2022-12-18T12:39:50;6.07;;;3.35;;
35128;SDS011;21301;43.626;10.580;2022-12-18T12:42:31;5.72;;;2.97;;
35128;SDS011;21301;43.626;10.580;2022-12-18T12:45:30;7.60;;;3.70;;
35128;SDS011;21301;43.626;10.580;2022-12-18T12:48:01;8.60;;;3.97;;
35128;SDS011;21301;43.626;10.580;2022-12-18T12:50:30;8.65;;;4.63;;
35128;SDS011;21301;43.626;10.580;2022-12-18T12:53:00;12.88;;;7.13;;
35128;SDS011;21301;43.626;10.580;2022-12-18T12:55:31;8.45;;;4.53;;
35128;SDS011;21301;43.626;10.580;2022-12-18T12:58:21;7.75;;;3.42;;
35128;SDS011;21301;43.626;10.580;2022-12-18T13:01:05;7.05;;;3.35;;
35128;SDS011;21301;43.626;10.580;2022-12-18T13:03:46;7.05;;;3.28;;
35128;SDS011;21301;43.626;10.580;2022-12-18T13:09:23;6.85;;;3.72;;
35128;SDS011;21301;43.626;10.580;2022-12-18T13:11:48;9.23;;;5.57;;
35128;SDS011;21301;43.626;10.580;2022-12-18T13:14:36;6.90;;;3.97;;
35128;SDS011;21301;43.626;10.580;2022-12-18T13:22:37;5.28;;;2.70;;
35128;SDS011;21301;43.626;10.580;2022-12-18T13:28:00;6.25;;;3.20;;
35128;SDS011;21301;43.626;10.580;2022-12-18T13:38:22;5.50;;;2.67;;
35128;SDS011;21301;43.626;10.580;2022-12-18T13:46:29;6.82;;;3.58;;
35128;SDS011;21301;43.626;10.580;2022-12-18T13:51:40;9.48;;;5.38;;
35128;SDS011;21301;43.626;10.580;2022-12-18T13:56:57;8.25;;;4.15;;
35128;SDS011;21301;43.626;10.580;2022-12-18T13:59:24;8.02;;;4.15;;
35128;SDS011;21301;43.626;10.580;2022-12-18T14:01:52;10.20;;;6.10;;
35128;SDS011;21301;43.626;10.580;2022-12-18T14:04:22;8.20;;;4.53;;
35128;SDS011;21301;43.626;10.580;2022-12-18T14:07:12;15.23;;;5.25;;
35128;SDS011;21301;43.626;10.580;2022-12-18T14:09:42;7.78;;;4.10;;
35128;SDS011;21301;43.626;10.580;2022-12-18T14:12:14;8.18;;;4.05;;
35128;SDS011;21301;43.626;10.580;2022-12-18T14:15:02;8.80;;;4.32;;
35128;SDS011;21301;43.626;10.580;2022-12-18T14:17:30;6.85;;;4.25;;
35128;SDS011;21301;43.626;10.580;2022-12-18T14:19:56;9.10;;;4.05;;
35128;SDS011;21301;43.626;10.580;2022-12-18T14:22:24;10.35;;;5.53;;
35128;SDS011;21301;43.626;10.580;2022-12-18T14:25:13;8.77;;;5.18;;
35128;SDS011;21301;43.626;10.580;2022-12-18T14:27:42;10.98;;;5.60;;
35128;SDS011;21301;43.626;10.580;2022-12-18T14:30:43;12.32;;;6.22;;
35128;SDS011;21301;43.626;10.580;2022-12-18T14:33:38;8.77;;;4.47;;
35128;SDS011;21301;43.626;10.580;2022-12-18T14:35:58;9.52;;;4.78;;
35128;SDS011;21301;43.626;10.580;2022-12-18T14:38:30;10.45;;;6.03;;
35128;SDS011;21301;43.626;10.580;2022-12-18T14:40:57;13.75;;;7.38;;
35128;SDS011;21301;43.626;10.580;2022-12-18T14:43:24;10.32;;;5.70;;
35128;SDS011;21301;43.626;10.580;2022-12-18T14:45:50;10.90;;;7.80;;
35128;SDS011;21301;43.626;10.580;2022-12-18T14:48:21;18.70;;;8.25;;
35128;SDS011;21301;43.626;10.580;2022-12-18T14:51:00;12.50;;;7.05;;
35128;SDS011;21301;43.626;10.580;2022-12-18T14:53:41;7.85;;;4.50;;
35128;SDS011;21301;43.626;10.580;2022-12-18T14:56:13;10.20;;;4.22;;
35128;SDS011;21301;43.626;10.580;2022-12-18T14:58:50;8.60;;;4.88;;
35128;SDS011;21301;43.626;10.580;2022-12-18T15:01:27;6.70;;;3.83;;
35128;SDS011;21301;43.626;10.580;2022-12-18T15:03:55;9.02;;;4.97;;
35128;SDS011;21301;43.626;10.580;2022-12-18T15:09:00;7.75;;;4.40;;
35128;SDS011;21301;43.626;10.580;2022-12-18T15:11:46;8.85;;;4.60;;
35128;SDS011;21301;43.626;10.580;2022-12-18T15:17:20;9.73;;;4.65;;
35128;SDS011;21301;43.626;10.580;2022-12-18T15:19:48;9.93;;;4.75;;
35128;SDS011;21301;43.626;10.580;2022-12-18T15:24:45;11.05;;;6.30;;
35128;SDS011;21301;43.626;10.580;2022-12-18T15:27:30;12.93;;;8.27;;
35128;SDS011;21301;43.626;10.580;2022-12-18T15:32:37;9.02;;;6.10;;
35128;SDS011;21301;43.626;10.580;2022-12-18T15:37:36;19.00;;;10.40;;
35128;SDS011;21301;43.626;10.580;2022-12-18T15:40:03;37.45;;;24.88;;
35128;SDS011;21301;43.626;10.580;2022-12-18T15:42:29;39.78;;;25.75;;
35128;SDS011;21301;43.626;10.580;2022-12-18T15:45:14;31.40;;;20.05;;
35128;SDS011;21301;43.626;10.580;2022-12-18T15:47:40;27.08;;;17.83;;
35128;SDS011;21301;43.626;10.580;2022-12-18T15:50:09;24.67;;;17.55;;
35128;SDS011;21301;43.626;10.580;2022-12-18T15:52:42;24.73;;;14.38;;
35128;SDS011;21301;43.626;10.580;2022-12-18T15:55:14;23.65;;;13.25;;
35128;SDS011;21301;43.626;10.580;2022-12-18T15:58:01;25.63;;;15.52;;
35128;SDS011;21301;43.626;10.580;2022-12-18T16:00:27;23.17;;;16.42;;
35128;SDS011;21301;43.626;10.580;2022-12-18T16:02:53;21.92;;;13.00;;
35128;SDS011;21301;43.626;10.580;2022-12-18T16:05:19;20.38;;;12.27;;
35128;SDS011;21301;43.626;10.580;2022-12-18T16:07:46;16.35;;;10.43;;
35128;SDS011;21301;43.626;10.580;2022-12-18T16:10:13;12.00;;;8.07;;
35128;SDS011;21301;43.626;10.580;2022-12-18T16:12:39;14.60;;;8.68;;
35128;SDS011;21301;43.626;10.580;2022-12-18T16:15:06;10.23;;;6.72;;
35128;SDS011;21301;43.626;10.580;2022-12-18T16:17:33;23.65;;;14.15;;
35128;SDS011;21301;43.626;10.580;2022-12-18T16:19:59;17.00;;;9.13;;
35128;SDS011;21301;43.626;10.580;2022-12-18T16:22:26;16.17;;;10.75;;
35128;SDS011;21301;43.626;10.580;2022-12-18T16:24:54;20.27;;;12.18;;
35128;SDS011;21301;43.626;10.580;2022-12-18T16:27:21;14.60;;;9.57;;
35128;SDS011;21301;43.626;10.580;2022-12-18T16:29:48;16.15;;;9.80;;
35128;SDS011;21301;43.626;10.580;2022-12-18T16:32:19;11.25;;;8.18;;
35128;SDS011;21301;43.626;10.580;2022-12-18T16:34:46;22.25;;;13.43;;
35128;SDS011;21301;43.626;10.580;2022-12-18T16:37:13;17.80;;;11.65;;
35128;SDS011;21301;43.626;10.580;2022-12-18T16:39:40;16.25;;;10.13;;